sensor_id;sensor_type;location;lat;lon;timestamp;P1;durP1;ratioP1;P2;durP2;ratioP2
37485;SDS011;23341;50.296;18.960;2023-07-09T00:02:26;7.35;;;5.55;;
37485;SDS011;23341;50.296;18.960;2023-07-09T00:07:32;5.30;;;4.78;;
37485;SDS011;23341;50.296;18.960;2023-07-09T00:12:39;6.72;;;5.20;;
37485;SDS011;23341;50.296;18.960;2023-07-09T00:17:43;5.75;;;5.15;;
37485;SDS011;23341;50.296;18.960;2023-07-09T00:22:48;6.88;;;4.90;;
37485;SDS011;23341;50.296;18.960;2023-07-09T00:27:57;6.50;;;5.20;;
37485;SDS011;23341;50.296;18.960;2023-07-09T00:33:01;7.35;;;5.45;;
37485;SDS011;23341;50.296;18.960;2023-07-09T00:38:13;6.97;;;5.60;;
37485;SDS011;23341;50.296;18.960;2023-07-09T00:43:19;7.20;;;5.93;;
37485;SDS011;23341;50.296;18.960;2023-07-09T00:48:23;8.73;;;5.20;;
37485;SDS011;23341;50.296;18.960;2023-07-09T00:53:29;7.63;;;6.03;;
37485;SDS011;23341;50.296;18.960;2023-07-09T00:58:36;8.23;;;5.40;;
37485;SDS011;23341;50.296;18.960;2023-07-09T01:03:45;7.65;;;6.20;;
37485;SDS011;23341;50.296;18.960;2023-07-09T01:08:52;6.10;;;5.28;;
37485;SDS011;23341;50.296;18.960;2023-07-09T01:14:00;7.03;;;6.32;;
37485;SDS011;23341;50.296;18.960;2023-07-09T01:24:13;6.93;;;5.07;;
37485;SDS011;23341;50.296;18.960;2023-07-09T01:29:22;5.75;;;5.00;;
37485;SDS011;23341;50.296;18.960;2023-07-09T01:34:29;8.18;;;5.32;;
37485;SDS011;23341;50.296;18.960;2023-07-09T01:39:36;6.55;;;5.85;;
37485;SDS011;23341;50.296;18.960;2023-07-09T01:44:43;6.43;;;5.53;;
37485;SDS011;23341;50.296;18.960;2023-07-09T01:49:48;6.13;;;5.47;;
37485;SDS011;23341;50.296;18.960;2023-07-09T01:54:54;8.57;;;5.78;;
37485;SDS011;23341;50.296;18.960;2023-07-09T02:00:00;7.43;;;5.25;;
37485;SDS011;23341;50.296;18.960;2023-07-09T02:05:15;6.07;;;5.47;;
37485;SDS011;23341;50.296;18.960;2023-07-09T02:10:23;11.40;;;5.57;;
37485;SDS011;23341;50.296;18.960;2023-07-09T02:15:28;8.13;;;6.35;;
37485;SDS011;23341;50.296;18.960;2023-07-09T02:20:33;6.22;;;5.53;;
37485;SDS011;23341;50.296;18.960;2023-07-09T02:25:38;6.75;;;6.05;;
37485;SDS011;23341;50.296;18.960;2023-07-09T02:30:43;10.98;;;6.72;;
37485;SDS011;23341;50.296;18.960;2023-07-09T02:35:48;7.30;;;6.38;;
37485;SDS011;23341;50.296;18.960;2023-07-09T02:40:54;7.95;;;5.90;;
37485;SDS011;23341;50.296;18.960;2023-07-09T02:45:59;8.02;;;6.30;;
37485;SDS011;23341;50.296;18.960;2023-07-09T02:51:04;8.50;;;6.45;;
37485;SDS011;23341;50.296;18.960;2023-07-09T02:56:10;7.10;;;6.38;;
37485;SDS011;23341;50.296;18.960;2023-07-09T03:01:14;8.63;;;6.25;;
37485;SDS011;23341;50.296;18.960;2023-07-09T03:06:19;8.48;;;6.75;;
37485;SDS011;23341;50.296;18.960;2023-07-09T03:11:27;9.93;;;7.13;;
37485;SDS011;23341;50.296;18.960;2023-07-09T03:16:33;9.57;;;6.87;;
37485;SDS011;23341;50.296;18.960;2023-07-09T03:21:38;11.00;;;6.38;;
37485;SDS011;23341;50.296;18.960;2023-07-09T03:26:44;7.43;;;6.40;;
37485;SDS011;23341;50.296;18.960;2023-07-09T03:31:49;7.68;;;6.88;;
37485;SDS011;23341;50.296;18.960;2023-07-09T03:36:53;8.45;;;7.18;;
37485;SDS011;23341;50.296;18.960;2023-07-09T03:41:59;11.45;;;7.03;;
37485;SDS011;23341;50.296;18.960;2023-07-09T03:47:03;7.85;;;7.03;;
37485;SDS011;23341;50.296;18.960;2023-07-09T03:52:08;9.68;;;7.63;;
37485;SDS011;23341;50.296;18.960;2023-07-09T03:57:14;8.63;;;6.95;;
37485;SDS011;23341;50.296;18.960;2023-07-09T04:02:18;11.70;;;8.05;;
37485;SDS011;23341;50.296;18.960;2023-07-09T04:07:23;7.93;;;7.13;;
37485;SDS011;23341;50.296;18.960;2023-07-09T04:12:28;10.07;;;7.25;;
37485;SDS011;23341;50.296;18.960;2023-07-09T04:17:33;11.65;;;7.55;;
37485;SDS011;23341;50.296;18.960;2023-07-09T04:22:38;10.40;;;7.45;;
37485;SDS011;23341;50.296;18.960;2023-07-09T04:27:43;13.32;;;7.25;;
37485;SDS011;23341;50.296;18.960;2023-07-09T04:32:48;10.48;;;8.27;;
37485;SDS011;23341;50.296;18.960;2023-07-09T04:37:52;10.43;;;7.68;;
37485;SDS011;23341;50.296;18.960;2023-07-09T04:42:58;9.75;;;7.15;;
37485;SDS011;23341;50.296;18.960;2023-07-09T04:48:03;12.10;;;6.65;;
37485;SDS011;23341;50.296;18.960;2023-07-09T04:53:08;11.05;;;7.60;;
37485;SDS011;23341;50.296;18.960;2023-07-09T04:58:16;9.88;;;7.70;;
37485;SDS011;23341;50.296;18.960;2023-07-09T05:03:21;10.52;;;8.10;;
37485;SDS011;23341;50.296;18.960;2023-07-09T05:08:25;11.68;;;7.63;;
37485;SDS011;23341;50.296;18.960;2023-07-09T05:13:31;7.30;;;6.50;;
37485;SDS011;23341;50.296;18.960;2023-07-09T05:18:36;12.95;;;8.85;;
37485;SDS011;23341;50.296;18.960;2023-07-09T05:23:41;8.00;;;7.20;;
37485;SDS011;23341;50.296;18.960;2023-07-09T05:28:46;10.25;;;7.68;;
37485;SDS011;23341;50.296;18.960;2023-07-09T05:33:51;8.73;;;7.68;;
37485;SDS011;23341;50.296;18.960;2023-07-09T05:38:56;8.48;;;7.00;;
37485;SDS011;23341;50.296;18.960;2023-07-09T05:44:02;11.27;;;7.28;;
37485;SDS011;23341;50.296;18.960;2023-07-09T05:49:07;8.43;;;6.82;;
37485;SDS011;23341;50.296;18.960;2023-07-09T05:54:14;8.75;;;5.95;;
37485;SDS011;23341;50.296;18.960;2023-07-09T05:59:19;6.75;;;5.95;;
37485;SDS011;23341;50.296;18.960;2023-07-09T06:04:24;8.63;;;5.40;;
37485;SDS011;23341;50.296;18.960;2023-07-09T06:09:29;10.63;;;6.95;;
37485;SDS011;23341;50.296;18.960;2023-07-09T06:14:35;6.07;;;5.28;;
37485;SDS011;23341;50.296;18.960;2023-07-09T06:19:39;5.65;;;5.13;;
37485;SDS011;23341;50.296;18.960;2023-07-09T06:24:44;6.78;;;5.43;;
37485;SDS011;23341;50.296;18.960;2023-07-09T06:29:50;7.57;;;5.43;;
37485;SDS011;23341;50.296;18.960;2023-07-09T06:34:54;5.68;;;5.05;;
37485;SDS011;23341;50.296;18.960;2023-07-09T06:39:59;8.50;;;4.90;;
37485;SDS011;23341;50.296;18.960;2023-07-09T06:45:08;6.80;;;5.00;;
37485;SDS011;23341;50.296;18.960;2023-07-09T06:50:14;5.32;;;4.82;;
37485;SDS011;23341;50.296;18.960;2023-07-09T06:55:18;6.75;;;4.40;;
37485;SDS011;23341;50.296;18.960;2023-07-09T07:00:24;5.25;;;4.30;;
37485;SDS011;23341;50.296;18.960;2023-07-09T07:05:28;4.88;;;4.43;;
37485;SDS011;23341;50.296;18.960;2023-07-09T07:10:35;6.07;;;5.10;;
37485;SDS011;23341;50.296;18.960;2023-07-09T07:20:52;6.00;;;4.00;;
37485;SDS011;23341;50.296;18.960;2023-07-09T07:25:57;4.82;;;4.43;;
37485;SDS011;23341;50.296;18.960;2023-07-09T07:31:04;5.40;;;4.50;;
37485;SDS011;23341;50.296;18.960;2023-07-09T07:36:10;5.60;;;4.13;;
37485;SDS011;23341;50.296;18.960;2023-07-09T07:41:32;21.48;;;4.63;;
37485;SDS011;23341;50.296;18.960;2023-07-09T07:46:38;7.10;;;3.92;;
37485;SDS011;23341;50.296;18.960;2023-07-09T07:51:43;4.75;;;3.92;;
37485;SDS011;23341;50.296;18.960;2023-07-09T07:56:47;7.40;;;4.55;;
37485;SDS011;23341;50.296;18.960;2023-07-09T08:01:53;6.75;;;5.00;;
37485;SDS011;23341;50.296;18.960;2023-07-09T08:06:57;9.73;;;3.95;;
37485;SDS011;23341;50.296;18.960;2023-07-09T08:12:02;4.53;;;3.47;;
37485;SDS011;23341;50.296;18.960;2023-07-09T08:17:18;3.30;;;3.00;;
37485;SDS011;23341;50.296;18.960;2023-07-09T08:22:22;3.28;;;3.05;;
37485;SDS011;23341;50.296;18.960;2023-07-09T08:27:27;7.20;;;3.67;;
37485;SDS011;23341;50.296;18.960;2023-07-09T08:32:33;12.00;;;3.33;;
37485;SDS011;23341;50.296;18.960;2023-07-09T08:37:38;3.17;;;2.88;;
37485;SDS011;23341;50.296;18.960;2023-07-09T08:42:42;2.80;;;2.60;;
37485;SDS011;23341;50.296;18.960;2023-07-09T08:48:05;3.47;;;3.10;;
37485;SDS011;23341;50.296;18.960;2023-07-09T08:53:18;3.10;;;2.42;;
37485;SDS011;23341;50.296;18.960;2023-07-09T08:58:25;4.70;;;3.15;;
37485;SDS011;23341;50.296;18.960;2023-07-09T09:03:35;4.85;;;3.55;;
37485;SDS011;23341;50.296;18.960;2023-07-09T09:08:46;2.80;;;2.60;;
37485;SDS011;23341;50.296;18.960;2023-07-09T09:13:59;4.40;;;3.17;;
37485;SDS011;23341;50.296;18.960;2023-07-09T09:24:20;5.18;;;3.03;;
37485;SDS011;23341;50.296;18.960;2023-07-09T09:29:30;2.92;;;2.72;;
37485;SDS011;23341;50.296;18.960;2023-07-09T09:34:36;2.55;;;2.35;;
37485;SDS011;23341;50.296;18.960;2023-07-09T09:39:41;3.55;;;2.50;;
37485;SDS011;23341;50.296;18.960;2023-07-09T09:44:46;3.42;;;2.72;;
37485;SDS011;23341;50.296;18.960;2023-07-09T09:49:52;5.45;;;3.00;;
37485;SDS011;23341;50.296;18.960;2023-07-09T09:55:02;3.42;;;2.63;;
37485;SDS011;23341;50.296;18.960;2023-07-09T10:00:13;3.47;;;2.58;;
37485;SDS011;23341;50.296;18.960;2023-07-09T10:05:22;4.05;;;2.50;;
37485;SDS011;23341;50.296;18.960;2023-07-09T10:10:35;4.32;;;2.10;;
37485;SDS011;23341;50.296;18.960;2023-07-09T10:15:42;2.55;;;2.35;;
37485;SDS011;23341;50.296;18.960;2023-07-09T10:20:51;6.10;;;2.50;;
37485;SDS011;23341;50.296;18.960;2023-07-09T10:26:05;2.92;;;2.70;;
37485;SDS011;23341;50.296;18.960;2023-07-09T10:31:21;3.90;;;2.95;;
37485;SDS011;23341;50.296;18.960;2023-07-09T10:36:41;3.72;;;2.90;;
37485;SDS011;23341;50.296;18.960;2023-07-09T10:41:57;3.97;;;2.90;;
37485;SDS011;23341;50.296;18.960;2023-07-09T10:47:05;4.43;;;3.22;;
37485;SDS011;23341;50.296;18.960;2023-07-09T10:52:18;3.03;;;2.67;;
37485;SDS011;23341;50.296;18.960;2023-07-09T10:57:29;3.05;;;2.80;;
37485;SDS011;23341;50.296;18.960;2023-07-09T11:02:43;3.90;;;3.03;;
37485;SDS011;23341;50.296;18.960;2023-07-09T11:07:52;3.42;;;3.13;;
37485;SDS011;23341;50.296;18.960;2023-07-09T11:13:05;4.35;;;3.28;;
37485;SDS011;23341;50.296;18.960;2023-07-09T11:18:16;3.58;;;3.05;;
37485;SDS011;23341;50.296;18.960;2023-07-09T11:23:38;2.97;;;2.78;;
37485;SDS011;23341;50.296;18.960;2023-07-09T11:28:50;3.03;;;2.70;;
37485;SDS011;23341;50.296;18.960;2023-07-09T11:34:00;5.75;;;3.00;;
37485;SDS011;23341;50.296;18.960;2023-07-09T11:39:17;4.55;;;3.15;;
37485;SDS011;23341;50.296;18.960;2023-07-09T11:44:26;4.03;;;3.63;;
37485;SDS011;23341;50.296;18.960;2023-07-09T11:49:39;4.45;;;3.47;;
37485;SDS011;23341;50.296;18.960;2023-07-09T11:54:52;4.45;;;3.42;;
37485;SDS011;23341;50.296;18.960;2023-07-09T11:59:58;2.72;;;2.50;;
37485;SDS011;23341;50.296;18.960;2023-07-09T12:05:12;3.35;;;3.05;;
37485;SDS011;23341;50.296;18.960;2023-07-09T12:10:25;4.10;;;3.25;;
37485;SDS011;23341;50.296;18.960;2023-07-09T12:15:31;3.50;;;3.17;;
37485;SDS011;23341;50.296;18.960;2023-07-09T12:20:36;3.15;;;2.95;;
37485;SDS011;23341;50.296;18.960;2023-07-09T12:25:46;3.63;;;3.13;;
37485;SDS011;23341;50.296;18.960;2023-07-09T12:30:52;3.60;;;2.75;;
37485;SDS011;23341;50.296;18.960;2023-07-09T12:35:57;6.38;;;2.90;;
37485;SDS011;23341;50.296;18.960;2023-07-09T12:41:05;4.82;;;2.97;;
37485;SDS011;23341;50.296;18.960;2023-07-09T12:46:18;3.40;;;3.10;;
37485;SDS011;23341;50.296;18.960;2023-07-09T12:51:23;4.68;;;2.60;;
37485;SDS011;23341;50.296;18.960;2023-07-09T12:56:31;4.10;;;3.08;;
37485;SDS011;23341;50.296;18.960;2023-07-09T13:01:38;3.20;;;2.70;;
37485;SDS011;23341;50.296;18.960;2023-07-09T13:06:42;3.78;;;3.10;;
37485;SDS011;23341;50.296;18.960;2023-07-09T13:11:50;3.00;;;2.80;;
37485;SDS011;23341;50.296;18.960;2023-07-09T13:17:01;3.50;;;3.20;;
37485;SDS011;23341;50.296;18.960;2023-07-09T13:22:07;3.13;;;2.80;;
37485;SDS011;23341;50.296;18.960;2023-07-09T13:27:17;3.85;;;2.83;;
37485;SDS011;23341;50.296;18.960;2023-07-09T13:32:22;3.40;;;3.10;;
37485;SDS011;23341;50.296;18.960;2023-07-09T13:37:27;3.42;;;3.00;;
37485;SDS011;23341;50.296;18.960;2023-07-09T13:42:32;3.80;;;3.38;;
37485;SDS011;23341;50.296;18.960;2023-07-09T13:47:37;4.47;;;3.15;;
37485;SDS011;23341;50.296;18.960;2023-07-09T13:52:42;3.58;;;3.28;;
37485;SDS011;23341;50.296;18.960;2023-07-09T13:57:48;3.83;;;2.78;;
37485;SDS011;23341;50.296;18.960;2023-07-09T14:02:53;3.53;;;3.00;;
37485;SDS011;23341;50.296;18.960;2023-07-09T14:07:58;3.40;;;3.10;;
37485;SDS011;23341;50.296;18.960;2023-07-09T14:13:04;4.00;;;2.58;;
37485;SDS011;23341;50.296;18.960;2023-07-09T14:18:11;2.70;;;2.50;;
37485;SDS011;23341;50.296;18.960;2023-07-09T14:23:17;3.30;;;3.00;;
37485;SDS011;23341;50.296;18.960;2023-07-09T14:28:24;4.50;;;3.20;;
37485;SDS011;23341;50.296;18.960;2023-07-09T14:33:28;5.53;;;2.83;;
37485;SDS011;23341;50.296;18.960;2023-07-09T14:38:33;4.05;;;3.20;;
37485;SDS011;23341;50.296;18.960;2023-07-09T14:43:38;3.50;;;3.20;;
37485;SDS011;23341;50.296;18.960;2023-07-09T14:48:42;3.55;;;3.22;;
37485;SDS011;23341;50.296;18.960;2023-07-09T14:53:48;3.53;;;3.22;;
37485;SDS011;23341;50.296;18.960;2023-07-09T14:58:55;3.60;;;3.15;;
37485;SDS011;23341;50.296;18.960;2023-07-09T15:04:00;3.85;;;3.55;;
37485;SDS011;23341;50.296;18.960;2023-07-09T15:09:26;3.88;;;3.58;;
37485;SDS011;23341;50.296;18.960;2023-07-09T15:14:33;4.35;;;3.17;;
37485;SDS011;23341;50.296;18.960;2023-07-09T15:19:38;4.40;;;3.13;;
37485;SDS011;23341;50.296;18.960;2023-07-09T15:24:42;3.55;;;3.25;;
37485;SDS011;23341;50.296;18.960;2023-07-09T15:29:48;3.25;;;2.90;;
37485;SDS011;23341;50.296;18.960;2023-07-09T15:34:53;5.13;;;3.33;;
37485;SDS011;23341;50.296;18.960;2023-07-09T15:39:57;6.93;;;3.67;;
37485;SDS011;23341;50.296;18.960;2023-07-09T15:45:04;3.38;;;2.90;;
37485;SDS011;23341;50.296;18.960;2023-07-09T15:50:12;5.53;;;4.43;;
37485;SDS011;23341;50.296;18.960;2023-07-09T15:55:24;5.38;;;4.88;;
37485;SDS011;23341;50.296;18.960;2023-07-09T16:00:32;4.05;;;3.65;;
37485;SDS011;23341;50.296;18.960;2023-07-09T16:05:38;2.70;;;2.50;;
37485;SDS011;23341;50.296;18.960;2023-07-09T16:10:42;5.00;;;3.50;;
37485;SDS011;23341;50.296;18.960;2023-07-09T16:15:49;4.60;;;3.45;;
37485;SDS011;23341;50.296;18.960;2023-07-09T16:20:53;3.88;;;3.40;;
37485;SDS011;23341;50.296;18.960;2023-07-09T16:25:58;3.38;;;2.80;;
37485;SDS011;23341;50.296;18.960;2023-07-09T16:31:04;4.10;;;2.90;;
37485;SDS011;23341;50.296;18.960;2023-07-09T16:36:09;11.88;;;3.88;;
37485;SDS011;23341;50.296;18.960;2023-07-09T16:41:17;2.97;;;2.67;;
37485;SDS011;23341;50.296;18.960;2023-07-09T16:46:24;3.22;;;2.92;;
37485;SDS011;23341;50.296;18.960;2023-07-09T16:51:29;3.40;;;3.10;;
37485;SDS011;23341;50.296;18.960;2023-07-09T16:56:33;3.55;;;3.20;;
37485;SDS011;23341;50.296;18.960;2023-07-09T17:01:39;3.53;;;3.20;;
37485;SDS011;23341;50.296;18.960;2023-07-09T17:06:44;14.82;;;3.40;;
37485;SDS011;23341;50.296;18.960;2023-07-09T17:11:51;3.38;;;3.08;;
37485;SDS011;23341;50.296;18.960;2023-07-09T17:17:01;4.18;;;3.63;;
37485;SDS011;23341;50.296;18.960;2023-07-09T17:22:14;5.38;;;3.22;;
37485;SDS011;23341;50.296;18.960;2023-07-09T17:27:21;4.32;;;3.03;;
37485;SDS011;23341;50.296;18.960;2023-07-09T17:32:27;3.53;;;3.22;;
37485;SDS011;23341;50.296;18.960;2023-07-09T17:37:32;3.65;;;3.35;;
37485;SDS011;23341;50.296;18.960;2023-07-09T17:42:36;3.25;;;3.05;;
37485;SDS011;23341;50.296;18.960;2023-07-09T17:47:42;3.08;;;2.80;;
37485;SDS011;23341;50.296;18.960;2023-07-09T17:52:47;4.60;;;3.70;;
37485;SDS011;23341;50.296;18.960;2023-07-09T17:57:54;3.67;;;3.17;;
37485;SDS011;23341;50.296;18.960;2023-07-09T18:03:05;3.17;;;2.88;;
37485;SDS011;23341;50.296;18.960;2023-07-09T18:08:12;4.28;;;3.25;;
37485;SDS011;23341;50.296;18.960;2023-07-09T18:13:17;14.52;;;3.38;;
37485;SDS011;23341;50.296;18.960;2023-07-09T18:18:24;4.18;;;3.88;;
37485;SDS011;23341;50.296;18.960;2023-07-09T18:23:29;5.85;;;3.25;;
37485;SDS011;23341;50.296;18.960;2023-07-09T18:28:33;4.50;;;3.83;;
37485;SDS011;23341;50.296;18.960;2023-07-09T18:33:40;6.82;;;4.35;;
37485;SDS011;23341;50.296;18.960;2023-07-09T18:38:44;7.22;;;5.70;;
37485;SDS011;23341;50.296;18.960;2023-07-09T18:43:48;6.32;;;5.15;;
37485;SDS011;23341;50.296;18.960;2023-07-09T18:48:54;7.68;;;4.57;;
37485;SDS011;23341;50.296;18.960;2023-07-09T18:53:59;6.00;;;4.60;;
37485;SDS011;23341;50.296;18.960;2023-07-09T18:59:07;6.65;;;4.50;;
37485;SDS011;23341;50.296;18.960;2023-07-09T19:04:24;5.97;;;4.90;;
37485;SDS011;23341;50.296;18.960;2023-07-09T19:09:32;7.90;;;4.93;;
37485;SDS011;23341;50.296;18.960;2023-07-09T19:14:37;6.90;;;5.05;;
37485;SDS011;23341;50.296;18.960;2023-07-09T19:19:43;5.00;;;4.50;;
37485;SDS011;23341;50.296;18.960;2023-07-09T19:24:48;9.80;;;3.95;;
37485;SDS011;23341;50.296;18.960;2023-07-09T19:29:53;4.40;;;3.97;;
37485;SDS011;23341;50.296;18.960;2023-07-09T19:34:58;9.85;;;4.07;;
37485;SDS011;23341;50.296;18.960;2023-07-09T19:40:08;9.35;;;4.25;;
37485;SDS011;23341;50.296;18.960;2023-07-09T19:45:20;7.60;;;5.15;;
37485;SDS011;23341;50.296;18.960;2023-07-09T19:50:29;6.75;;;5.45;;
37485;SDS011;23341;50.296;18.960;2023-07-09T19:55:36;10.20;;;5.38;;
37485;SDS011;23341;50.296;18.960;2023-07-09T20:00:41;6.00;;;4.25;;
37485;SDS011;23341;50.296;18.960;2023-07-09T20:05:48;10.52;;;5.18;;
37485;SDS011;23341;50.296;18.960;2023-07-09T20:10:54;5.80;;;4.38;;
37485;SDS011;23341;50.296;18.960;2023-07-09T20:16:01;6.25;;;4.85;;
37485;SDS011;23341;50.296;18.960;2023-07-09T20:21:12;9.85;;;5.10;;
37485;SDS011;23341;50.296;18.960;2023-07-09T20:26:21;22.55;;;16.15;;
37485;SDS011;23341;50.296;18.960;2023-07-09T20:31:25;6.68;;;5.38;;
37485;SDS011;23341;50.296;18.960;2023-07-09T20:36:31;4.60;;;4.18;;
37485;SDS011;23341;50.296;18.960;2023-07-09T20:41:36;6.10;;;4.30;;
37485;SDS011;23341;50.296;18.960;2023-07-09T20:46:40;8.25;;;4.35;;
37485;SDS011;23341;50.296;18.960;2023-07-09T20:51:47;5.15;;;4.30;;
37485;SDS011;23341;50.296;18.960;2023-07-09T20:56:52;6.03;;;3.55;;
37485;SDS011;23341;50.296;18.960;2023-07-09T21:01:59;7.72;;;4.78;;
37485;SDS011;23341;50.296;18.960;2023-07-09T21:07:07;4.60;;;4.20;;
37485;SDS011;23341;50.296;18.960;2023-07-09T21:12:14;4.65;;;4.00;;
37485;SDS011;23341;50.296;18.960;2023-07-09T21:17:20;6.07;;;4.35;;
37485;SDS011;23341;50.296;18.960;2023-07-09T21:22:31;4.72;;;4.18;;
37485;SDS011;23341;50.296;18.960;2023-07-09T21:27:35;7.75;;;4.90;;
37485;SDS011;23341;50.296;18.960;2023-07-09T21:32:41;6.03;;;4.45;;
37485;SDS011;23341;50.296;18.960;2023-07-09T21:37:47;6.80;;;4.60;;
37485;SDS011;23341;50.296;18.960;2023-07-09T21:42:52;6.07;;;4.07;;
37485;SDS011;23341;50.296;18.960;2023-07-09T21:47:58;6.15;;;4.20;;
37485;SDS011;23341;50.296;18.960;2023-07-09T21:53:09;8.07;;;4.60;;
37485;SDS011;23341;50.296;18.960;2023-07-09T21:58:18;7.85;;;4.75;;
37485;SDS011;23341;50.296;18.960;2023-07-09T22:03:23;5.63;;;4.75;;
37485;SDS011;23341;50.296;18.960;2023-07-09T22:08:29;6.68;;;4.28;;
37485;SDS011;23341;50.296;18.960;2023-07-09T22:13:34;8.65;;;5.20;;
37485;SDS011;23341;50.296;18.960;2023-07-09T22:18:38;5.53;;;4.30;;
37485;SDS011;23341;50.296;18.960;2023-07-09T22:23:44;9.48;;;5.13;;
37485;SDS011;23341;50.296;18.960;2023-07-09T22:28:48;8.00;;;4.78;;
37485;SDS011;23341;50.296;18.960;2023-07-09T22:33:53;6.45;;;4.13;;
37485;SDS011;23341;50.296;18.960;2023-07-09T22:38:59;7.45;;;4.25;;
37485;SDS011;23341;50.296;18.960;2023-07-09T22:44:03;9.77;;;4.40;;
37485;SDS011;23341;50.296;18.960;2023-07-09T22:49:08;7.53;;;3.80;;
37485;SDS011;23341;50.296;18.960;2023-07-09T22:54:17;7.10;;;3.53;;
37485;SDS011;23341;50.296;18.960;2023-07-09T22:59:23;9.68;;;4.47;;
37485;SDS011;23341;50.296;18.960;2023-07-09T23:04:27;6.55;;;3.90;;
37485;SDS011;23341;50.296;18.960;2023-07-09T23:09:33;8.85;;;4.07;;
37485;SDS011;23341;50.296;18.960;2023-07-09T23:14:37;5.25;;;4.43;;
37485;SDS011;23341;50.296;18.960;2023-07-09T23:19:41;6.57;;;4.30;;
37485;SDS011;23341;50.296;18.960;2023-07-09T23:24:49;6.38;;;4.15;;
37485;SDS011;23341;50.296;18.960;2023-07-09T23:29:54;10.32;;;5.43;;
37485;SDS011;23341;50.296;18.960;2023-07-09T23:34:59;7.68;;;5.47;;
37485;SDS011;23341;50.296;18.960;2023-07-09T23:40:05;7.72;;;4.95;;
37485;SDS011;23341;50.296;18.960;2023-07-09T23:45:14;8.15;;;4.97;;
37485;SDS011;23341;50.296;18.960;2023-07-09T23:50:21;9.15;;;5.25;;
37485;SDS011;23341;50.296;18.960;2023-07-09T23:55:28;10.93;;;5.93;;
